createdAt,value
2019-06-07T00:01:49.841Z,56.42
2019-06-07T00:04:22.197Z,56.56
2019-06-07T00:06:54.469Z,56.67
2019-06-07T00:09:26.737Z,56.54
2019-06-07T00:11:59.445Z,57.04
2019-06-07T00:14:31.695Z,57.04
2019-06-07T00:17:05.101Z,57.08
2019-06-07T00:19:37.378Z,56.84
2019-06-07T00:22:18.423Z,56.07
2019-06-07T00:24:43.703Z,56.03
2019-06-07T00:27:18.278Z,56.33
2019-06-07T00:29:49.963Z,56.35
2019-06-07T00:32:22.460Z,55.70
2019-06-07T00:34:54.722Z,55.87
2019-06-07T00:37:27.016Z,55.44
2019-06-07T00:40:13.902Z,56.34
2019-06-07T00:42:33.274Z,57.93
2019-06-07T00:45:11.213Z,58.42
2019-06-07T00:47:44.263Z,57.91
2019-06-07T00:50:20.421Z,58.45
2019-06-07T00:53:14.799Z,58.53
2019-06-07T00:55:27.671Z,58.81
2019-06-07T00:57:59.365Z,58.07
2019-06-07T01:00:31.781Z,58.24
2019-06-07T01:03:04.196Z,57.99
2019-06-07T01:05:36.531Z,58.29
2019-06-07T01:08:08.833Z,57.50
2019-06-07T01:10:53.001Z,57.84
2019-06-07T01:13:16.718Z,58.60
2019-06-07T01:15:49.663Z,59.46
2019-06-07T01:18:43.550Z,56.00
2019-06-07T01:20:55.914Z,57.46
2019-06-07T01:24:04.672Z,58.14
2019-06-07T01:26:02.061Z,59.02
2019-06-07T01:28:34.367Z,59.54
2019-06-07T01:31:06.669Z,58.51
2019-06-07T01:33:50.806Z,58.64
2019-06-07T01:36:17.779Z,59.33
2019-06-07T01:38:48.757Z,58.76
2019-06-07T01:41:24.393Z,59.48
2019-06-07T01:43:55.191Z,59.70
2019-06-07T01:46:28.712Z,59.44
2019-06-07T01:49:01.389Z,58.93
2019-06-07T01:51:33.680Z,58.85
2019-06-07T01:54:49.282Z,61.41
2019-06-07T01:56:40.235Z,60.50
2019-06-07T01:59:12.523Z,60.32
2019-06-07T02:01:45.267Z,59.99
2019-06-07T02:04:21.639Z,60.70
2019-06-07T02:06:51.713Z,60.95
2019-06-07T02:09:27.993Z,62.40
2019-06-07T02:11:58.160Z,62.17
2019-06-07T02:14:33.551Z,62.39
2019-06-07T02:17:07.082Z,62.34
2019-06-07T02:19:39.476Z,62.96
2019-06-07T02:22:11.811Z,62.31
2019-06-07T02:24:44.211Z,63.15
2019-06-07T02:27:16.638Z,61.41
2019-06-07T02:29:49.020Z,61.50
2019-06-07T02:32:22.317Z,61.77
2019-06-07T02:34:55.395Z,62.13
2019-06-07T02:37:33.607Z,62.40
2019-06-07T02:40:01.757Z,62.86
2019-06-07T02:42:38.992Z,61.69
2019-06-07T02:45:10.748Z,63.49
2019-06-07T02:47:46.342Z,63.49
2019-06-07T02:50:19.607Z,62.13
2019-06-07T02:52:52.981Z,60.97
2019-06-07T02:55:29.082Z,59.36
2019-06-07T02:57:59.292Z,58.30
2019-06-07T03:01:00.067Z,57.78
2019-06-07T03:03:18.039Z,56.87
2019-06-07T03:05:51.386Z,57.16
2019-06-07T03:08:23.760Z,57.18
2019-06-07T03:10:57.413Z,57.92
2019-06-07T03:13:34.909Z,57.50
2019-06-07T03:16:08.313Z,57.37
2019-06-07T03:18:57.539Z,56.42
2019-06-07T03:21:32.026Z,56.67
2019-06-07T03:24:05.737Z,57.28
2019-06-07T03:27:30.490Z,57.48
2019-06-07T03:29:15.606Z,58.24
2019-06-07T03:31:48.141Z,58.38
2019-06-07T03:34:20.366Z,56.88
2019-06-07T03:36:52.627Z,55.86
2019-06-07T03:39:25.294Z,56.80
2019-06-07T03:42:06.133Z,56.58
2019-06-07T03:44:32.976Z,55.13
2019-06-07T03:47:05.806Z,55.39
2019-06-07T03:49:42.117Z,55.77
2019-06-07T03:52:12.002Z,55.23
2019-06-07T03:54:44.298Z,55.10
2019-06-07T03:57:17.642Z,55.41
2019-06-07T03:59:49.916Z,54.85
2019-06-07T04:02:22.147Z,54.51
2019-06-07T04:04:54.321Z,53.39
2019-06-07T04:07:28.985Z,53.09
2019-06-07T04:10:01.618Z,53.39
2019-06-07T04:12:38.638Z,53.86
2019-06-07T04:15:07.979Z,53.85
2019-06-07T04:18:00.481Z,54.13
2019-06-07T04:20:15.616Z,54.84
2019-06-07T04:22:47.998Z,54.44
2019-06-07T04:25:20.239Z,53.42
2019-06-07T04:27:54.479Z,53.06
2019-06-07T04:30:32.128Z,52.06
2019-06-07T04:33:03.792Z,49.70
2019-06-07T04:35:39.177Z,48.32
2019-06-07T04:38:14.619Z,46.78
2019-06-07T04:40:47.368Z,45.91
2019-06-07T04:43:19.716Z,42.94
2019-06-07T04:45:52.043Z,40.04
2019-06-07T04:48:30.926Z,39.68
2019-06-07T04:51:05.561Z,38.08
2019-06-07T04:53:40.897Z,36.19
2019-06-07T04:56:11.867Z,35.46
2019-06-07T04:58:44.148Z,35.70
2019-06-07T05:01:27.323Z,34.70
2019-06-07T05:03:50.608Z,33.83
2019-06-07T05:06:25.115Z,33.61
2019-06-07T05:08:58.730Z,33.50
2019-06-07T05:11:31.993Z,33.04
2019-06-07T05:14:06.219Z,31.98
2019-06-07T05:16:44.767Z,31.79
2019-06-07T05:19:18.410Z,31.23
2019-06-07T05:22:03.731Z,32.09
2019-06-07T05:24:34.825Z,30.89
2019-06-07T05:27:07.006Z,32.03
2019-06-07T05:29:41.642Z,32.24
2019-06-07T05:32:14.648Z,31.02
2019-06-07T05:34:47.391Z,28.26
2019-06-07T05:37:19.695Z,26.61
2019-06-07T05:39:53.964Z,28.73
2019-06-07T05:42:28.359Z,26.37
2019-06-07T05:45:00.628Z,27.01
2019-06-07T05:47:38.451Z,26.39
2019-06-07T05:50:38.017Z,26.96
2019-06-07T05:52:44.353Z,27.46
2019-06-07T05:55:13.585Z,28.51
2019-06-07T05:57:50.635Z,26.66
2019-06-07T06:00:19.793Z,27.53
2019-06-07T06:03:04.854Z,27.10
2019-06-07T06:05:34.194Z,29.87
2019-06-07T06:07:59.295Z,27.73
2019-06-07T06:10:31.604Z,27.99
2019-06-07T06:13:04.087Z,30.27
2019-06-07T06:15:45.320Z,29.39
2019-06-07T06:18:11.547Z,26.96
2019-06-07T06:21:04.913Z,29.46
2019-06-07T06:23:17.820Z,27.56
2019-06-07T06:25:57.028Z,24.92
2019-06-07T06:28:27.415Z,28.70
2019-06-07T06:31:00.827Z,26.30
2019-06-07T06:33:34.724Z,25.31
2019-06-07T06:36:06.862Z,28.56
2019-06-07T06:38:39.676Z,28.33
2019-06-07T06:41:16.247Z,31.25
2019-06-07T06:43:49.371Z,32.52
2019-06-07T06:46:37.499Z,32.82
2019-06-07T06:48:55.327Z,34.90
2019-06-07T06:51:26.904Z,34.60
2019-06-07T06:54:00.165Z,36.26
2019-06-07T06:56:32.695Z,34.84
2019-06-07T07:01:42.538Z,35.00
2019-06-07T07:04:14.606Z,37.01
2019-06-07T07:06:48.064Z,35.51
2019-06-07T07:09:21.367Z,35.31
2019-06-07T07:12:10.763Z,34.42
2019-06-07T07:14:45.560Z,31.35
2019-06-07T07:17:17.401Z,32.69
2019-06-07T07:19:55.293Z,32.94
2019-06-07T07:22:27.499Z,32.77
2019-06-07T07:25:03.058Z,31.87
2019-06-07T07:27:35.261Z,34.50
2019-06-07T07:30:36.122Z,31.23
2019-06-07T07:32:46.733Z,29.40
2019-06-07T07:35:19.134Z,30.99
2019-06-07T07:37:57.034Z,32.90
2019-06-07T07:42:59.638Z,35.20
2019-06-07T07:45:32.044Z,36.88
2019-06-07T07:48:15.475Z,38.21
2019-06-07T07:50:40.105Z,37.04
2019-06-07T07:53:12.423Z,38.50
2019-06-07T07:55:45.760Z,38.61
2019-06-07T07:58:21.225Z,37.32
2019-06-07T08:01:07.159Z,36.94
2019-06-07T08:03:27.531Z,36.05
2019-06-07T08:06:00.361Z,36.23
2019-06-07T08:08:35.070Z,33.44
2019-06-07T08:11:07.613Z,30.63
2019-06-07T08:13:40.574Z,28.57
2019-06-07T08:16:19.050Z,27.32
2019-06-07T08:18:58.523Z,27.38
2019-06-07T08:21:29.578Z,29.58
2019-06-07T08:24:05.622Z,32.02
2019-06-07T08:26:39.819Z,32.33
2019-06-07T08:29:12.639Z,34.83
2019-06-07T08:31:50.827Z,35.08
2019-06-07T08:34:22.740Z,34.55
2019-06-07T08:36:59.156Z,34.80
2019-06-07T08:39:32.491Z,35.26
2019-06-07T08:42:21.261Z,36.18
2019-06-07T08:44:41.222Z,36.29
2019-06-07T08:47:20.518Z,36.72
2019-06-07T08:49:50.677Z,37.29
2019-06-07T08:52:23.772Z,37.93
2019-06-07T08:55:03.317Z,37.91
2019-06-07T08:57:33.000Z,38.91
2019-06-07T09:00:42.416Z,39.35
2019-06-07T09:02:41.944Z,38.54
2019-06-07T09:05:14.924Z,39.20
2019-06-07T09:07:47.341Z,39.37
2019-06-07T09:10:22.302Z,40.43
2019-06-07T09:13:00.328Z,40.61
2019-06-07T09:15:30.055Z,40.59
2019-06-07T09:18:37.815Z,40.90
2019-06-07T09:20:45.964Z,42.06
2019-06-07T09:23:18.557Z,42.55
2019-06-07T09:26:01.363Z,43.69
2019-06-07T09:28:26.273Z,42.75
2019-06-07T09:31:07.846Z,44.21
2019-06-07T09:33:34.660Z,44.53
2019-06-07T09:36:12.846Z,45.85
2019-06-07T09:38:45.808Z,47.07
2019-06-07T09:41:19.239Z,45.71
2019-06-07T09:44:04.740Z,43.98
2019-06-07T09:46:26.030Z,44.25
2019-06-07T09:49:28.942Z,42.69
2019-06-07T09:51:33.752Z,41.99
2019-06-07T09:54:10.863Z,39.72
2019-06-07T09:56:41.192Z,40.21
2019-06-07T09:59:14.834Z,39.54
2019-06-07T10:01:47.298Z,39.08
2019-06-07T10:04:31.387Z,40.49
2019-06-07T10:07:04.056Z,40.90
2019-06-07T10:12:12.652Z,40.96
2019-06-07T10:14:49.724Z,41.54
2019-06-07T10:17:27.103Z,42.20
2019-06-07T10:20:02.567Z,42.32
2019-06-07T10:22:41.061Z,42.75
2019-06-07T10:25:17.706Z,42.19
2019-06-07T10:27:56.076Z,42.12
2019-06-07T10:30:33.053Z,44.53
2019-06-07T10:33:06.819Z,44.07
2019-06-07T10:35:40.710Z,43.57
2019-06-07T10:38:20.846Z,43.89
2019-06-07T10:40:54.225Z,44.08
2019-06-07T10:43:26.665Z,43.88
2019-06-07T10:46:01.360Z,44.03
2019-06-07T10:48:34.221Z,44.38
2019-06-07T10:51:06.581Z,43.97
2019-06-07T10:53:39.721Z,43.43
2019-06-07T10:56:13.434Z,44.06
2019-06-07T10:58:45.935Z,44.38
2019-06-07T11:01:18.258Z,43.81
2019-06-07T11:03:50.528Z,44.67
2019-06-07T11:06:22.929Z,45.86
2019-06-07T11:08:55.419Z,46.26
2019-06-07T11:11:28.016Z,45.14
2019-06-07T11:14:00.669Z,45.13
2019-06-07T11:16:33.940Z,44.82
2019-06-07T11:19:08.045Z,45.54
2019-06-07T11:21:40.845Z,46.10
2019-06-07T11:24:24.732Z,46.00
2019-06-07T11:27:00.213Z,45.52
2019-06-07T11:29:33.706Z,46.84
2019-06-07T11:32:06.376Z,46.73
2019-06-07T11:34:43.226Z,45.36
2019-06-07T11:37:16.202Z,45.68
2019-06-07T11:39:48.975Z,45.22
2019-06-07T11:42:23.873Z,44.46
2019-06-07T11:44:57.498Z,44.46
2019-06-07T11:47:30.086Z,45.20
2019-06-07T11:50:02.569Z,43.54
2019-06-07T11:52:38.833Z,44.24
2019-06-07T11:55:13.572Z,43.93
2019-06-07T11:57:48.389Z,42.97
2019-06-07T12:00:24.317Z,42.44
2019-06-07T12:02:56.701Z,43.33
2019-06-07T12:05:29.292Z,43.74
2019-06-07T12:08:02.765Z,42.27
2019-06-07T12:10:42.789Z,43.35
2019-06-07T12:13:19.555Z,43.43
2019-06-07T12:15:57.523Z,43.99
2019-06-07T12:18:30.030Z,44.05
2019-06-07T12:21:02.361Z,44.33
2019-06-07T12:23:37.253Z,43.58
2019-06-07T12:26:10.698Z,44.00
2019-06-07T12:28:43.021Z,44.06
2019-06-07T12:31:15.367Z,43.21
2019-06-07T12:33:49.278Z,42.03
2019-06-07T12:36:22.006Z,41.94
2019-06-07T12:38:54.593Z,41.57
2019-06-07T12:41:32.387Z,40.74
2019-06-07T12:44:10.047Z,40.45
2019-06-07T12:46:42.423Z,40.72
2019-06-07T12:49:15.088Z,41.15
2019-06-07T12:51:47.487Z,41.62
2019-06-07T12:54:20.058Z,41.74
2019-06-07T12:56:52.857Z,41.07
2019-06-07T12:59:30.410Z,40.63
2019-06-07T13:02:03.568Z,40.75
2019-06-07T13:04:41.661Z,41.13
2019-06-07T13:07:18.061Z,41.23
2019-06-07T13:10:02.242Z,40.89
2019-06-07T13:12:37.355Z,40.39
2019-06-07T13:15:10.459Z,39.99
2019-06-07T13:17:42.924Z,39.57
2019-06-07T13:20:16.186Z,39.82
2019-06-07T13:22:49.867Z,40.03
2019-06-07T13:25:43.539Z,40.06
2019-06-07T13:28:00.042Z,40.30
2019-06-07T13:30:36.483Z,40.95
2019-06-07T13:33:11.447Z,40.85
2019-06-07T13:35:45.232Z,40.59
2019-06-07T13:38:28.880Z,40.87
2019-06-07T13:41:02.169Z,40.27
2019-06-07T13:43:35.529Z,40.29
2019-06-07T13:46:07.868Z,39.28
2019-06-07T13:48:44.274Z,39.31
2019-06-07T13:51:18.983Z,39.55
2019-06-07T13:53:52.827Z,39.83
2019-06-07T13:56:26.047Z,39.37
2019-06-07T13:58:59.372Z,40.33
2019-06-07T14:01:31.781Z,43.26
2019-06-07T14:04:05.141Z,44.40
2019-06-07T14:06:37.472Z,43.34
2019-06-07T14:09:11.245Z,45.41
2019-06-07T14:11:50.625Z,52.04
2019-06-07T14:14:20.215Z,52.72
2019-06-07T14:16:54.614Z,53.25
2019-06-07T14:19:27.011Z,50.75
2019-06-07T14:22:02.992Z,49.05
2019-06-07T14:24:35.441Z,48.83
2019-06-07T14:27:07.857Z,47.73
2019-06-07T14:29:40.787Z,47.02
2019-06-07T14:32:13.198Z,46.35
2019-06-07T14:34:45.549Z,47.14
2019-06-07T14:37:19.969Z,46.41
2019-06-07T14:39:52.355Z,51.51
2019-06-07T14:42:25.355Z,46.28
2019-06-07T14:44:57.987Z,47.30
2019-06-07T14:47:30.298Z,52.75
2019-06-07T14:50:08.315Z,61.38
2019-06-07T14:52:41.605Z,67.14
2019-06-07T14:55:13.996Z,77.63
2019-06-07T14:57:46.411Z,78.68
2019-06-07T15:00:20.387Z,81.34
2019-06-07T15:02:52.685Z,81.23
2019-06-07T15:05:28.636Z,79.28
2019-06-07T15:08:01.075Z,73.12
2019-06-07T15:10:34.007Z,70.50
2019-06-07T15:13:07.609Z,78.24
2019-06-07T15:15:40.032Z,72.09
2019-06-07T15:18:12.720Z,77.58
2019-06-07T15:20:46.272Z,80.96
2019-06-07T15:23:18.564Z,82.41
2019-06-07T15:25:51.166Z,84.71
2019-06-07T15:28:23.648Z,82.45
2019-06-07T15:30:56.038Z,83.54
2019-06-07T15:33:29.694Z,82.64
2019-06-07T15:36:04.304Z,83.48
2019-06-07T15:38:37.176Z,81.42
2019-06-07T15:41:09.759Z,84.14
2019-06-07T15:43:42.418Z,81.20
2019-06-07T15:46:14.746Z,82.36
2019-06-07T15:48:47.074Z,78.14
2019-06-07T15:51:19.572Z,78.98
2019-06-07T15:53:52.811Z,70.85
2019-06-07T15:56:25.102Z,75.51
2019-06-07T15:58:57.464Z,72.33
2019-06-07T16:01:31.108Z,74.82
2019-06-07T16:04:03.493Z,72.76
2019-06-07T16:06:36.277Z,68.18
2019-06-07T16:09:09.152Z,72.39
2019-06-07T16:11:43.644Z,72.88
2019-06-07T16:14:17.582Z,75.60
2019-06-07T16:16:49.923Z,74.41
2019-06-07T16:19:22.220Z,76.48
2019-06-07T16:21:54.533Z,78.61
2019-06-07T16:24:29.612Z,80.45
2019-06-07T16:27:04.923Z,71.54
2019-06-07T16:29:38.518Z,79.23
2019-06-07T16:32:12.023Z,76.17
2019-06-07T16:34:45.881Z,76.55
2019-06-07T16:37:18.497Z,76.46
2019-06-07T16:39:54.053Z,77.91
2019-06-07T16:42:26.462Z,78.40
2019-06-07T16:45:00.132Z,77.09
2019-06-07T16:47:37.038Z,77.10
2019-06-07T16:50:14.762Z,77.96
2019-06-07T16:52:49.214Z,76.37
2019-06-07T16:55:22.550Z,76.48
2019-06-07T16:57:54.862Z,74.56
2019-06-07T17:00:27.648Z,75.87
2019-06-07T17:02:59.908Z,78.51
2019-06-07T17:05:32.352Z,79.40
2019-06-07T17:08:05.714Z,79.40
2019-06-07T17:10:38.241Z,79.00
2019-06-07T17:13:10.676Z,78.96
2019-06-07T17:15:44.934Z,76.71
2019-06-07T17:18:19.019Z,77.68
2019-06-07T17:20:51.334Z,77.20
2019-06-07T17:23:23.654Z,77.05
2019-06-07T17:25:57.125Z,77.71
2019-06-07T17:28:29.646Z,76.38
2019-06-07T17:31:02.085Z,80.16
2019-06-07T17:33:35.356Z,79.95
2019-06-07T17:36:07.786Z,79.67
2019-06-07T17:38:40.453Z,72.36
2019-06-07T17:41:13.847Z,73.29
2019-06-07T17:43:56.396Z,70.77
2019-06-07T17:46:20.291Z,72.63
2019-06-07T17:48:53.262Z,69.55
2019-06-07T17:51:26.555Z,70.74
2019-06-07T17:53:59.970Z,72.65
2019-06-07T17:56:32.478Z,74.62
2019-06-07T17:59:06.221Z,74.40
2019-06-07T18:01:41.683Z,74.96
2019-06-07T18:04:14.149Z,71.16
2019-06-07T18:06:47.364Z,75.61
2019-06-07T18:09:20.519Z,75.76
2019-06-07T18:11:55.958Z,67.52
2019-06-07T18:14:28.312Z,71.97
2019-06-07T18:17:01.679Z,68.59
2019-06-07T18:19:34.037Z,73.60
2019-06-07T18:22:06.411Z,68.92
2019-06-07T18:24:39.780Z,66.84
2019-06-07T18:27:12.013Z,67.50
2019-06-07T18:29:44.315Z,73.12
2019-06-07T18:32:16.658Z,70.35
2019-06-07T18:34:48.907Z,75.39
2019-06-07T18:37:21.264Z,74.81
2019-06-07T18:39:53.616Z,76.56
2019-06-07T18:42:25.779Z,72.21
2019-06-07T18:44:59.348Z,75.73
2019-06-07T18:47:31.761Z,75.79
2019-06-07T18:50:05.543Z,73.31
2019-06-07T18:52:39.454Z,76.37
2019-06-07T18:55:13.358Z,74.90
2019-06-07T18:57:48.047Z,76.58
2019-06-07T19:00:23.321Z,75.37
2019-06-07T19:02:56.124Z,76.02
2019-06-07T19:05:28.672Z,77.48
2019-06-07T19:08:00.950Z,69.40
2019-06-07T19:10:33.195Z,75.33
2019-06-07T19:13:05.651Z,76.06
2019-06-07T19:15:38.072Z,65.39
2019-06-07T19:18:10.364Z,67.06
2019-06-07T19:20:42.640Z,61.05
2019-06-07T19:23:14.909Z,66.04
2019-06-07T19:25:48.392Z,60.43
2019-06-07T19:28:20.688Z,60.49
2019-06-07T19:30:53.088Z,60.78
2019-06-07T19:33:25.384Z,60.99
2019-06-07T19:35:57.631Z,61.85
2019-06-07T19:38:29.845Z,62.73
2019-06-07T19:41:18.041Z,62.89
2019-06-07T19:43:38.207Z,62.49
2019-06-07T19:46:10.431Z,68.86
2019-06-07T19:48:42.688Z,71.25
2019-06-07T19:51:14.997Z,70.70
2019-06-07T19:53:47.312Z,71.45
2019-06-07T19:56:19.556Z,72.92
2019-06-07T19:58:53.836Z,72.42
2019-06-07T20:01:26.122Z,73.82
2019-06-07T20:03:58.413Z,71.80
2019-06-07T20:06:30.588Z,73.36
2019-06-07T20:09:04.861Z,69.03
2019-06-07T20:11:37.474Z,64.27
2019-06-07T20:14:09.742Z,63.68
2019-06-07T20:16:41.965Z,65.91
2019-06-07T20:19:14.258Z,64.84
2019-06-07T20:21:46.474Z,68.17
2019-06-07T20:24:26.974Z,62.52
2019-06-07T20:26:56.144Z,70.32
2019-06-07T20:29:30.222Z,68.62
2019-06-07T20:32:02.598Z,69.78
2019-06-07T20:34:34.932Z,60.68
2019-06-07T20:37:07.740Z,70.42
2019-06-07T20:39:41.348Z,69.32
2019-06-07T20:42:13.890Z,62.08
2019-06-07T20:44:46.093Z,61.12
2019-06-07T20:47:18.376Z,61.15
2019-06-07T20:49:52.620Z,61.46
2019-06-07T20:52:24.911Z,61.82
2019-06-07T20:54:58.447Z,62.06
2019-06-07T20:57:30.866Z,62.37
2019-06-07T21:00:12.605Z,62.62
2019-06-07T21:02:38.947Z,62.12
2019-06-07T21:05:14.364Z,62.35
2019-06-07T21:07:46.703Z,62.74
2019-06-07T21:10:19.030Z,62.49
2019-06-07T21:12:51.379Z,61.51
2019-06-07T21:15:23.589Z,61.18
2019-06-07T21:17:55.751Z,60.84
2019-06-07T21:20:28.188Z,60.18
2019-06-07T21:23:00.734Z,63.33
2019-06-07T21:25:33.132Z,64.12
2019-06-07T21:28:05.386Z,63.44
2019-06-07T21:30:37.647Z,61.24
2019-06-07T21:33:09.814Z,58.38
2019-06-07T21:35:42.899Z,57.70
2019-06-07T21:38:15.639Z,57.36
2019-06-07T21:40:47.908Z,56.41
2019-06-07T21:43:20.071Z,56.41
2019-06-07T21:46:04.770Z,56.36
2019-06-07T21:48:26.246Z,56.80
2019-06-07T21:50:58.520Z,57.47
2019-06-07T21:53:30.728Z,57.09
2019-06-07T21:56:04.848Z,57.09
2019-06-07T21:58:37.143Z,56.81
2019-06-07T22:01:12.378Z,57.44
2019-06-07T22:03:47.441Z,57.49
2019-06-07T22:06:19.738Z,57.73
2019-06-07T22:08:52.106Z,57.38
2019-06-07T22:11:24.391Z,57.22
2019-06-07T22:13:56.633Z,57.26
2019-06-07T22:16:29.568Z,57.10
2019-06-07T22:19:01.851Z,57.38
2019-06-07T22:21:34.025Z,57.62
2019-06-07T22:24:06.852Z,57.73
2019-06-07T22:26:39.292Z,58.12
2019-06-07T22:29:12.416Z,58.20
2019-06-07T22:31:45.843Z,58.57
2019-06-07T22:34:19.197Z,58.88
2019-06-07T22:36:51.654Z,59.13
2019-06-07T22:39:23.811Z,59.51
2019-06-07T22:41:55.999Z,59.76
2019-06-07T22:44:28.287Z,60.64
2019-06-07T22:47:01.585Z,63.91
2019-06-07T22:49:33.849Z,61.00
2019-06-07T22:52:09.372Z,60.74
2019-06-07T22:54:41.210Z,60.53
2019-06-07T22:57:16.673Z,60.51
2019-06-07T22:59:50.068Z,61.17
2019-06-07T23:02:22.401Z,61.46
2019-06-07T23:04:54.686Z,61.63
2019-06-07T23:07:26.983Z,62.09
2019-06-07T23:09:59.303Z,62.19
2019-06-07T23:12:31.617Z,62.37
2019-06-07T23:15:04.975Z,62.12
2019-06-07T23:17:37.240Z,62.01
2019-06-07T23:20:11.786Z,61.53
2019-06-07T23:22:44.267Z,61.65
2019-06-07T23:25:20.923Z,61.34
2019-06-07T23:27:50.735Z,61.43
2019-06-07T23:30:23.249Z,61.09
2019-06-07T23:32:55.438Z,60.64
2019-06-07T23:35:27.734Z,61.83
2019-06-07T23:37:59.942Z,65.62
2019-06-07T23:40:32.220Z,64.21
2019-06-07T23:43:04.385Z,63.29
2019-06-07T23:45:37.647Z,61.91
2019-06-07T23:48:09.831Z,62.20
2019-06-07T23:50:43.133Z,63.38
2019-06-07T23:53:15.652Z,64.37
2019-06-07T23:55:48.000Z,64.37
2019-06-07T23:58:20.574Z,65.75
